Time;durP1;ratioP1;P1;durP2;ratioP2;P2;SDS_P1;SDS_P2;PMS_P1;PMS_P2;Temp;Humidity;BMP_temperature;BMP_pressure;BME280_temperature;BME280_humidity;BME280_pressure;Samples;Min_cycle;Max_cycle;Signal;HPM_P1;HPM_P2
2023/09/15 00:00:24;;;;;;;8.27;5.30;;;;;14.90;96703.00;;;;8219473;28;20208;-67
2023/09/15 00:04:31;;;;;;;5.55;4.82;;;;;14.80;96715.00;;;;8218489;28;20781;-68
2023/09/15 00:08:37;;;;;;;8.80;4.93;;;;;14.80;96704.00;;;;8219533;28;20208;-67
2023/09/15 00:12:42;;;;;;;6.68;4.78;;;;;14.70;96700.00;;;;8215818;28;20202;-69
2023/09/15 00:16:45;;;;;;;6.28;4.70;;;;;14.60;96697.00;;;;8219579;28;20198;-67
2023/09/15 00:20:49;;;;;;;5.35;4.50;;;;;14.60;96698.00;;;;8218021;28;20255;-67
2023/09/15 00:24:55;;;;;;;7.00;4.75;;;;;14.60;96693.00;;;;8218957;28;20242;-67
2023/09/15 00:28:58;;;;;;;5.82;4.93;;;;;14.50;96700.00;;;;8202156;28;20199;-67
2023/09/15 00:33:02;;;;;;;5.70;4.88;;;;;14.50;96690.00;;;;8219809;28;20199;-67
2023/09/15 00:37:06;;;;;;;8.27;4.65;;;;;14.40;96693.00;;;;8218909;28;20240;-67
2023/09/15 00:41:12;;;;;;;8.52;5.47;;;;;14.40;96694.00;;;;8221624;28;20404;-67
2023/09/15 00:45:19;;;;;;;6.80;5.43;;;;;14.30;96702.00;;;;8218788;28;20322;-67
2023/09/15 00:49:25;;;;;;;6.40;5.18;;;;;14.20;96705.00;;;;8215969;28;20254;-67
2023/09/15 00:53:28;;;;;;;5.53;4.90;;;;;14.20;96699.00;;;;8224838;28;20199;-67
2023/09/15 00:57:34;;;;;;;6.80;5.20;;;;;14.20;96698.00;;;;8208776;28;20203;-67
2023/09/15 01:01:39;;;;;;;7.55;5.20;;;;;14.10;96698.00;;;;8215910;28;21261;-67
2023/09/15 01:05:48;;;;;;;6.88;5.65;;;;;14.10;96697.00;;;;8217896;28;20200;-67
2023/09/15 01:09:54;;;;;;;7.70;5.43;;;;;14.10;96700.00;;;;8211432;28;20234;-67
2023/09/15 01:13:59;;;;;;;7.68;5.47;;;;;14.00;96696.00;;;;8215705;28;20199;-67
2023/09/15 01:18:12;;;;;;;8.73;5.82;;;;;14.10;96690.00;;;;8214967;28;20308;-67
2023/09/15 01:22:56;;;;;;;7.35;5.47;;;;;14.00;96689.00;;;;8200895;28;20263;-68
2023/09/15 01:27:23;;;;;;;7.53;5.38;;;;;14.00;96688.00;;;;8198005;28;20758;-68
2023/09/15 01:31:31;;;;;;;7.82;5.45;;;;;14.10;96689.00;;;;8216270;28;20283;-68
2023/09/15 01:35:40;;;;;;;8.77;5.55;;;;;14.10;96684.00;;;;8217689;28;20589;-67
2023/09/15 01:39:43;;;;;;;7.97;4.93;;;;;14.20;96680.00;;;;8216437;28;20199;-67
2023/09/15 01:43:51;;;;;;;8.13;5.50;;;;;14.20;96688.00;;;;8222943;28;20231;-66
2023/09/15 01:47:57;;;;;;;6.78;5.18;;;;;14.30;96681.00;;;;8217444;28;20318;-67
2023/09/15 01:52:04;;;;;;;5.95;5.32;;;;;14.30;96681.00;;;;8223745;28;20195;-67
2023/09/15 01:56:08;;;;;;;10.50;5.53;;;;;14.20;96689.00;;;;8217163;28;20207;-67
2023/09/15 02:00:12;;;;;;;9.45;5.57;;;;;14.20;96691.00;;;;8218083;28;20207;-68
2023/09/15 02:04:17;;;;;;;8.02;5.65;;;;;14.20;96685.00;;;;8217674;28;20235;-67
2023/09/15 02:08:20;;;;;;;6.68;5.00;;;;;14.10;96685.00;;;;8216985;28;20211;-67
2023/09/15 02:12:23;;;;;;;9.73;6.05;;;;;14.10;96679.00;;;;8209614;28;20239;-67
2023/09/15 02:16:27;;;;;;;11.23;6.28;;;;;14.10;96678.00;;;;8210015;28;20343;-66
2023/09/15 02:20:32;;;;;;;9.07;6.05;;;;;14.00;96677.00;;;;8217409;28;20209;-67
2023/09/15 02:24:36;;;;;;;8.05;5.28;;;;;14.00;96682.00;;;;8217033;28;20234;-67
2023/09/15 02:28:39;;;;;;;7.00;5.45;;;;;14.00;96683.00;;;;8220114;28;20210;-67
2023/09/15 02:32:43;;;;;;;9.90;6.47;;;;;14.00;96677.00;;;;8222400;28;20301;-68
2023/09/15 02:36:49;;;;;;;10.50;6.68;;;;;13.90;96675.00;;;;8222668;28;20206;-67
2023/09/15 02:40:52;;;;;;;7.72;5.60;;;;;13.90;96672.00;;;;8223256;28;20199;-67
2023/09/15 02:44:56;;;;;;;9.85;5.75;;;;;13.80;96674.00;;;;8223153;28;20321;-68
2023/09/15 02:49:01;;;;;;;11.25;5.95;;;;;13.80;96675.00;;;;8227529;28;20811;-67
2023/09/15 02:53:19;;;;;;;8.80;6.22;;;;;13.80;96669.00;;;;8219795;28;20234;-67
2023/09/15 02:57:28;;;;;;;6.97;5.43;;;;;13.80;96657.00;;;;8219548;28;20709;-67
2023/09/15 03:01:31;;;;;;;11.07;6.43;;;;;13.70;96662.00;;;;8250361;23;20208;-67
2023/09/15 03:05:39;;;;;;;8.07;5.78;;;;;13.70;96653.00;;;;8216917;28;20230;-67
2023/09/15 03:09:47;;;;;;;7.47;6.10;;;;;13.70;96655.00;;;;8249863;28;20232;-67
2023/09/15 03:13:50;;;;;;;11.77;6.03;;;;;13.70;96654.00;;;;8250141;28;20242;-67
2023/09/15 03:17:53;;;;;;;8.30;6.25;;;;;13.60;96652.00;;;;8252182;28;20676;-67
2023/09/15 03:21:58;;;;;;;9.90;6.22;;;;;13.50;96651.00;;;;8253527;28;20984;-67
2023/09/15 03:26:03;;;;;;;8.82;5.85;;;;;13.50;96651.00;;;;8251335;28;20568;-68
2023/09/15 03:30:11;;;;;;;8.75;6.15;;;;;13.50;96654.00;;;;8253890;28;20289;-67
2023/09/15 03:34:15;;;;;;;8.07;6.35;;;;;13.40;96647.00;;;;8252496;28;20217;-67
2023/09/15 03:38:18;;;;;;;7.68;5.90;;;;;13.40;96655.00;;;;8252781;28;20289;-68
2023/09/15 03:42:23;;;;;;;10.05;6.43;;;;;13.30;96654.00;;;;8234320;28;20234;-68
2023/09/15 03:46:30;;;;;;;8.25;5.80;;;;;13.30;96653.00;;;;8247795;28;20338;-67
2023/09/15 03:50:36;;;;;;;10.32;6.53;;;;;13.30;96652.00;;;;8252881;28;20214;-67
2023/09/15 03:54:39;;;;;;;9.18;6.53;;;;;13.30;96653.00;;;;8252126;28;20271;-67
2023/09/15 03:58:45;;;;;;;8.85;6.63;;;;;13.20;96649.00;;;;8251281;28;20284;-68
2023/09/15 04:02:48;;;;;;;8.55;5.85;;;;;13.20;96652.00;;;;8255261;28;20705;-67
2023/09/15 04:06:54;;;;;;;8.48;6.60;;;;;13.20;96656.00;;;;8281363;28;20204;-67
2023/09/15 04:10:57;;;;;;;10.95;6.30;;;;;13.20;96650.00;;;;8265624;28;20237;-68
2023/09/15 04:15:04;;;;;;;11.23;6.78;;;;;13.20;96653.00;;;;8245709;28;20202;-67
2023/09/15 04:19:08;;;;;;;11.48;6.55;;;;;13.30;96657.00;;;;8281883;28;20289;-67
2023/09/15 04:23:11;;;;;;;10.05;6.78;;;;;13.30;96666.00;;;;8282605;28;20651;-67
2023/09/15 04:27:16;;;;;;;9.75;6.45;;;;;13.30;96666.00;;;;8283703;28;20206;-67
2023/09/15 04:31:24;;;;;;;9.18;6.50;;;;;13.30;96655.00;;;;8265847;28;20194;-67
2023/09/15 04:35:29;;;;;;;7.57;6.18;;;;;13.30;96666.00;;;;8282305;28;20209;-66
2023/09/15 04:39:34;;;;;;;10.95;6.57;;;;;13.20;96666.00;;;;8282981;28;20202;-67
2023/09/15 04:43:37;;;;;;;9.23;6.70;;;;;13.20;96669.00;;;;8257038;28;20230;-66
2023/09/15 04:47:46;;;;;;;9.75;5.93;;;;;13.20;96665.00;;;;8277342;28;20208;-66
2023/09/15 04:51:49;;;;;;;9.48;6.40;;;;;13.20;96672.00;;;;8281519;28;20194;-66
2023/09/15 04:55:53;;;;;;;9.27;6.10;;;;;13.20;96669.00;;;;8281280;28;20734;-66
2023/09/15 04:59:57;;;;;;;9.57;6.65;;;;;13.20;96669.00;;;;8274874;28;20882;-66
2023/09/15 05:04:02;;;;;;;9.05;6.55;;;;;13.20;96667.00;;;;8273281;28;20264;-66
2023/09/15 05:08:07;;;;;;;8.70;6.15;;;;;13.20;96665.00;;;;8274736;28;20198;-66
2023/09/15 05:12:17;;;;;;;8.98;6.78;;;;;13.20;96656.00;;;;8281379;28;20206;-66
2023/09/15 05:16:20;;;;;;;9.43;6.28;;;;;13.20;96661.00;;;;8277022;28;20289;-67
2023/09/15 05:20:28;;;;;;;10.30;7.18;;;;;13.20;96667.00;;;;8278168;28;20229;-66
2023/09/15 05:24:33;;;;;;;10.40;6.90;;;;;13.30;96675.00;;;;8275931;28;20710;-66
2023/09/15 05:28:38;;;;;;;10.85;6.90;;;;;13.30;96669.00;;;;8279995;28;20209;-65
2023/09/15 05:32:42;;;;;;;11.52;6.57;;;;;13.40;96668.00;;;;8277204;28;20305;-65
2023/09/15 05:36:46;;;;;;;10.32;6.72;;;;;13.40;96680.00;;;;8280357;28;20713;-65
2023/09/15 05:40:50;;;;;;;9.35;6.90;;;;;13.50;96675.00;;;;8280487;28;20838;-66
2023/09/15 05:44:56;;;;;;;7.90;6.07;;;;;13.50;96672.00;;;;8270791;28;20228;-66
2023/09/15 05:48:59;;;;;;;8.73;6.00;;;;;13.60;96675.00;;;;8274441;28;20217;-66
2023/09/15 05:53:05;;;;;;;9.75;6.30;;;;;13.70;96669.00;;;;8274225;28;20633;-66
2023/09/15 05:57:09;;;;;;;9.02;6.75;;;;;13.70;96675.00;;;;8257347;28;20200;-66
2023/09/15 06:01:17;;;;;;;12.70;5.78;;;;;13.80;96675.00;;;;8274979;28;20289;-66
2023/09/15 06:05:22;;;;;;;12.27;6.20;;;;;13.90;96670.00;;;;8277508;28;20934;-66
2023/09/15 06:09:30;;;;;;;10.90;6.97;;;;;14.00;96671.00;;;;8279529;28;20585;-66
2023/09/15 06:13:34;;;;;;;10.23;6.20;;;;;14.00;96668.00;;;;8279189;28;20198;-66
2023/09/15 06:17:40;;;;;;;9.00;5.93;;;;;14.10;96674.00;;;;8283684;28;20214;-66
2023/09/15 06:21:49;;;;;;;8.23;6.13;;;;;14.20;96675.00;;;;8280852;28;20560;-66
2023/09/15 06:25:56;;;;;;;6.20;5.50;;;;;14.30;96668.00;;;;8278374;28;20218;-66
2023/09/15 06:30:03;;;;;;;9.23;5.88;;;;;14.40;96669.00;;;;8272663;28;20206;-66
2023/09/15 06:34:09;;;;;;;8.27;5.90;;;;;14.50;96664.00;;;;8278143;28;20309;-66
2023/09/15 06:38:15;;;;;;;8.70;5.90;;;;;14.70;96660.00;;;;8277116;28;20214;-66
2023/09/15 06:42:22;;;;;;;7.80;5.70;;;;;14.80;96669.00;;;;8278044;28;20670;-65
2023/09/15 06:46:37;;;;;;;5.88;5.28;;;;;14.90;96672.00;;;;8263454;28;20230;-66
2023/09/15 06:50:45;;;;;;;13.88;5.72;;;;;15.00;96669.00;;;;8278707;28;20880;-66
2023/09/15 06:54:52;;;;;;;9.93;5.80;;;;;15.10;96664.00;;;;8273017;28;20201;-67
2023/09/15 06:58:57;;;;;;;9.90;5.90;;;;;15.10;96668.00;;;;8265443;28;20281;-67
2023/09/15 07:03:04;;;;;;;7.82;5.22;;;;;15.20;96675.00;;;;8275982;28;20918;-67
2023/09/15 07:07:10;;;;;;;8.13;5.72;;;;;15.20;96674.00;;;;8275534;28;20313;-67
2023/09/15 07:11:14;;;;;;;7.90;5.95;;;;;15.30;96677.00;;;;8276771;28;20202;-67
2023/09/15 07:15:20;;;;;;;7.63;5.70;;;;;15.40;96670.00;;;;8281735;28;20278;-67
2023/09/15 07:19:24;;;;;;;7.90;5.40;;;;;15.50;96659.00;;;;8268696;28;20205;-67
2023/09/15 07:23:28;;;;;;;10.85;5.80;;;;;15.60;96668.00;;;;8256287;28;20618;-67
2023/09/15 07:27:35;;;;;;;5.65;5.05;;;;;15.70;96664.00;;;;8282897;28;20233;-66
2023/09/15 07:31:42;;;;;;;7.05;5.70;;;;;15.80;96664.00;;;;8281310;28;20587;-65
2023/09/15 07:35:45;;;;;;;8.02;5.53;;;;;16.00;96661.00;;;;8257795;28;20205;-65
2023/09/15 07:39:48;;;;;;;6.40;5.18;;;;;16.20;96670.00;;;;8280147;28;20194;-66
2023/09/15 07:43:53;;;;;;;12.63;5.70;;;;;16.40;96661.00;;;;8281834;28;20272;-67
2023/09/15 07:47:57;;;;;;;7.85;4.65;;;;;16.70;96668.00;;;;8281805;28;20233;-67
2023/09/15 07:52:01;;;;;;;7.43;5.05;;;;;16.90;96661.00;;;;8283289;28;20840;-67
2023/09/15 07:56:04;;;;;;;6.65;5.28;;;;;17.10;96662.00;;;;8283065;28;20244;-67
2023/09/15 08:00:11;;;;;;;6.30;5.25;;;;;17.30;96645.00;;;;8277327;28;20202;-67
2023/09/15 08:04:24;;;;;;;7.80;5.35;;;;;17.50;96652.00;;;;8282237;28;20240;-67
2023/09/15 08:08:29;;;;;;;7.55;5.05;;;;;17.80;96652.00;;;;8282421;28;20588;-66
2023/09/15 08:12:32;;;;;;;5.68;4.18;;;;;18.10;96650.00;;;;8274609;28;20293;-66
2023/09/15 08:16:36;;;;;;;7.15;5.47;;;;;18.60;96660.00;;;;8275289;28;20281;-66
2023/09/15 08:20:40;;;;;;;7.25;4.57;;;;;19.20;96650.00;;;;8279237;28;20198;-66
2023/09/15 08:24:46;;;;;;;5.05;4.30;;;;;19.70;96646.00;;;;8277992;28;20260;-66
2023/09/15 08:28:54;;;;;;;5.25;4.50;;;;;20.30;96652.00;;;;8273617;28;20206;-66
2023/09/15 08:32:59;;;;;;;4.95;4.45;;;;;20.50;96651.00;;;;8269008;28;20232;-66
2023/09/15 08:37:04;;;;;;;4.88;4.38;;;;;21.00;96649.00;;;;8274510;28;20205;-66
2023/09/15 08:41:16;;;;;;;5.80;4.53;;;;;21.60;96655.00;;;;8266595;28;20209;-65
2023/09/15 08:45:20;;;;;;;5.47;4.47;;;;;22.20;96659.00;;;;8266397;28;20686;-65
2023/09/15 08:49:24;;;;;;;6.63;4.47;;;;;22.70;96656.00;;;;8279964;28;20241;-65
2023/09/15 08:53:30;;;;;;;5.57;4.28;;;;;23.20;96668.00;;;;8271429;28;20978;-65
2023/09/15 08:57:34;;;;;;;4.80;4.40;;;;;23.90;96664.00;;;;8276289;28;20297;-65
2023/09/15 09:01:38;;;;;;;5.05;4.53;;;;;24.20;96673.00;;;;8276705;28;20238;-65
2023/09/15 09:05:50;;;;;;;4.45;4.05;;;;;24.10;96664.00;;;;8265453;28;20856;-65
2023/09/15 09:09:55;;;;;;;4.40;4.00;;;;;24.70;96652.00;;;;8254710;28;20194;-65
2023/09/15 09:14:10;;;;;;;5.00;3.97;;;;;25.40;96660.00;;;;8277672;28;20308;-66
2023/09/15 09:18:16;;;;;;;4.10;3.72;;;;;25.60;96656.00;;;;8275962;28;20705;-66
2023/09/15 09:22:20;;;;;;;4.10;3.72;;;;;25.70;96662.00;;;;8271639;28;20213;-66
2023/09/15 09:26:27;;;;;;;6.50;4.28;;;;;25.50;96660.00;;;;8278668;28;20279;-65
2023/09/15 09:30:30;;;;;;;3.92;3.63;;;;;25.60;96661.00;;;;8279506;28;20200;-65
2023/09/15 09:34:34;;;;;;;7.03;4.13;;;;;26.20;96658.00;;;;8275942;28;20285;-67
2023/09/15 09:38:52;;;;;;;4.40;3.35;;;;;26.50;96665.00;;;;8259164;28;20202;-65
2023/09/15 09:42:57;;;;;;;4.05;3.65;;;;;26.80;96652.00;;;;8275907;28;20326;-65
2023/09/15 09:47:02;;;;;;;4.60;3.72;;;;;27.00;96657.00;;;;8276167;28;20678;-65
2023/09/15 09:51:08;;;;;;;3.95;3.65;;;;;27.10;96659.00;;;;8270590;28;20280;-65
2023/09/15 09:55:11;;;;;;;4.10;3.70;;;;;27.30;96657.00;;;;8269199;28;20221;-65
2023/09/15 09:59:16;;;;;;;5.10;3.40;;;;;27.70;96650.00;;;;8272218;28;20202;-66
2023/09/15 10:03:19;;;;;;;4.22;3.38;;;;;27.70;96649.00;;;;8269005;28;20230;-66
2023/09/15 10:07:23;;;;;;;3.10;2.90;;;;;27.90;96654.00;;;;8278549;28;20237;-66
2023/09/15 10:11:33;;;;;;;3.53;3.30;;;;;27.90;96646.00;;;;8268687;28;20319;-66
2023/09/15 10:15:40;;;;;;;6.50;3.70;;;;;27.80;96653.00;;;;8275199;28;20230;-66
2023/09/15 10:19:46;;;;;;;3.95;3.65;;;;;27.60;96649.00;;;;8269894;28;20194;-66
2023/09/15 10:23:50;;;;;;;3.30;3.00;;;;;27.40;96639.00;;;;8265593;28;20210;-66
2023/09/15 10:27:55;;;;;;;4.28;3.88;;;;;27.10;96649.00;;;;8264686;28;20262;-66
2023/09/15 10:32:03;;;;;;;7.45;3.90;;;;;26.90;96648.00;;;;8263326;28;20276;-64
2023/09/15 10:36:16;;;;;;;5.45;3.90;;;;;26.60;96639.00;;;;8264519;28;20202;-64
2023/09/15 10:40:26;;;;;;;5.97;3.83;;;;;26.60;96640.00;;;;8263675;28;20206;-64
2023/09/15 10:44:42;;;;;;;6.38;3.58;;;;;26.20;96640.00;;;;8263213;28;20722;-65
2023/09/15 10:48:52;;;;;;;3.33;3.03;;;;;25.90;96628.00;;;;8267187;28;20303;-65
2023/09/15 10:53:08;;;;;;;3.20;3.00;;;;;25.90;96622.00;;;;8261063;28;20208;-65
2023/09/15 10:57:13;;;;;;;4.50;4.10;;;;;26.00;96621.00;;;;8281185;28;20194;-65
2023/09/15 11:01:20;;;;;;;3.53;3.22;;;;;26.00;96620.00;;;;8281222;28;20718;-65
2023/09/15 11:05:27;;;;;;;5.03;3.15;;;;;26.20;96606.00;;;;8279653;28;20253;-65
2023/09/15 11:09:33;;;;;;;3.88;3.17;;;;;26.30;96609.00;;;;8281695;28;20226;-65
2023/09/15 11:13:38;;;;;;;3.28;3.08;;;;;26.00;96594.00;;;;8280701;28;20225;-65
2023/09/15 11:17:43;;;;;;;7.50;3.92;;;;;25.70;96603.00;;;;8282421;28;20202;-65
2023/09/15 11:21:50;;;;;;;4.75;3.17;;;;;25.70;96611.00;;;;8270639;28;20206;-65
2023/09/15 11:26:04;;;;;;;5.55;3.35;;;;;25.70;96606.00;;;;8272968;28;20711;-65
2023/09/15 11:30:27;;;;;;;3.58;2.90;;;;;25.70;96600.00;;;;8281293;28;20276;-65
2023/09/15 11:34:33;;;;;;;3.35;3.10;;;;;25.50;96598.00;;;;8277952;28;20202;-65
2023/09/15 11:38:38;;;;;;;3.80;2.92;;;;;25.70;96586.00;;;;8277805;28;20252;-65
2023/09/15 11:42:52;;;;;;;3.10;2.90;;;;;25.70;96579.00;;;;8276041;28;20211;-65
2023/09/15 11:47:05;;;;;;;3.20;2.90;;;;;25.40;96575.00;;;;8274861;28;20222;-65
2023/09/15 11:51:14;;;;;;;3.15;2.75;;;;;25.40;96583.00;;;;8278704;28;20205;-65
2023/09/15 11:55:22;;;;;;;2.78;2.58;;;;;25.50;96571.00;;;;8281922;28;20219;-65
2023/09/15 11:59:31;;;;;;;3.60;3.15;;;;;25.50;96572.00;;;;8283019;28;20212;-65
2023/09/15 12:03:34;;;;;;;2.97;2.78;;;;;25.50;96572.00;;;;8278072;28;20357;-65
2023/09/15 12:07:39;;;;;;;3.63;2.70;;;;;25.70;96568.00;;;;8281049;28;20296;-65
2023/09/15 12:11:48;;;;;;;3.10;2.88;;;;;25.70;96562.00;;;;8264078;28;20202;-65
2023/09/15 12:15:54;;;;;;;3.20;2.90;;;;;25.40;96564.00;;;;8282136;28;20245;-65
2023/09/15 12:20:00;;;;;;;3.20;2.95;;;;;25.20;96564.00;;;;8276319;28;20206;-65
2023/09/15 12:24:11;;;;;;;3.03;2.72;;;;;25.30;96557.00;;;;8262921;28;20204;-65
2023/09/15 12:28:15;;;;;;;2.67;2.58;;;;;25.40;96551.00;;;;8280366;28;20241;-65
2023/09/15 12:32:21;;;;;;;3.13;2.83;;;;;25.70;96555.00;;;;8260975;28;20197;-66
2023/09/15 12:36:30;;;;;;;3.70;2.72;;;;;25.90;96554.00;;;;8272702;28;20201;-65
2023/09/15 12:40:34;;;;;;;4.30;3.10;;;;;25.90;96551.00;;;;8278936;28;20202;-65
2023/09/15 12:44:38;;;;;;;2.92;2.72;;;;;25.80;96534.00;;;;8279471;28;20948;-65
2023/09/15 12:48:42;;;;;;;2.97;2.67;;;;;25.70;96533.00;;;;8278163;28;20234;-65
2023/09/15 12:52:45;;;;;;;2.67;2.47;;;;;25.80;96534.00;;;;8282336;28;20202;-65
2023/09/15 12:56:52;;;;;;;3.25;2.83;;;;;26.00;96533.00;;;;8280821;28;20220;-65
2023/09/15 13:01:00;;;;;;;3.42;2.88;;;;;26.00;96532.00;;;;8281392;28;20745;-66
2023/09/15 13:05:04;;;;;;;2.95;2.75;;;;;26.10;96524.00;;;;8281247;28;20249;-65
2023/09/15 13:09:09;;;;;;;3.22;2.53;;;;;26.10;96521.00;;;;8263745;28;20953;-65
2023/09/15 13:13:14;;;;;;;3.33;3.13;;;;;26.10;96518.00;;;;8262666;28;20206;-65
2023/09/15 13:17:19;;;;;;;3.15;2.95;;;;;26.20;96513.00;;;;8278257;28;20260;-65
2023/09/15 13:21:23;;;;;;;5.05;3.17;;;;;26.20;96509.00;;;;8263365;28;20297;-65
2023/09/15 13:25:27;;;;;;;3.80;3.20;;;;;26.40;96506.00;;;;8280427;28;20198;-65
2023/09/15 13:29:31;;;;;;;2.42;2.33;;;;;26.40;96503.00;;;;8282315;28;20887;-64
2023/09/15 13:33:35;;;;;;;2.88;2.67;;;;;26.40;96500.00;;;;8269805;28;20292;-65
2023/09/15 13:37:41;;;;;;;5.78;3.13;;;;;26.40;96492.00;;;;8275570;28;20701;-65
2023/09/15 13:41:44;;;;;;;3.00;2.80;;;;;26.50;96484.00;;;;8276954;28;20210;-65
2023/09/15 13:45:50;;;;;;;3.75;3.00;;;;;26.50;96483.00;;;;8278516;28;20190;-65
2023/09/15 13:50:01;;;;;;;3.30;3.10;;;;;26.50;96475.00;;;;8277915;28;20808;-65
2023/09/15 13:54:07;;;;;;;3.35;3.10;;;;;26.60;96478.00;;;;8275480;28;20222;-65
2023/09/15 13:58:10;;;;;;;3.90;3.60;;;;;26.60;96475.00;;;;8276060;28;20190;-65
2023/09/15 14:02:16;;;;;;;9.07;3.70;;;;;26.60;96478.00;;;;8276358;28;20230;-65
2023/09/15 14:06:22;;;;;;;3.97;2.70;;;;;26.70;96468.00;;;;8277651;28;20791;-65
2023/09/15 14:10:25;;;;;;;4.03;2.80;;;;;27.00;96454.00;;;;8279041;28;20221;-65
2023/09/15 14:14:30;;;;;;;3.20;2.58;;;;;27.00;96458.00;;;;8273282;28;20289;-62
2023/09/15 14:18:34;;;;;;;4.70;2.92;;;;;27.00;96452.00;;;;8256566;28;20245;-63
2023/09/15 14:22:38;;;;;;;5.88;2.78;;;;;27.10;96457.00;;;;8276902;28;20209;-64
2023/09/15 14:26:46;;;;;;;3.30;2.72;;;;;27.10;96454.00;;;;8287117;28;20202;-63
2023/09/15 14:30:53;;;;;;;3.95;2.83;;;;;27.20;96458.00;;;;8285722;28;20208;-64
2023/09/15 14:34:56;;;;;;;2.97;2.78;;;;;27.30;96449.00;;;;8278590;28;21211;-64
2023/09/15 14:39:06;;;;;;;3.30;2.90;;;;;27.60;96455.00;;;;8285155;28;20207;-64
2023/09/15 14:43:10;;;;;;;2.80;2.60;;;;;27.70;96456.00;;;;8269237;28;20241;-64
2023/09/15 14:47:13;;;;;;;4.20;2.85;;;;;27.20;96450.00;;;;8267272;28;20222;-64
2023/09/15 14:51:17;;;;;;;3.63;2.70;;;;;26.90;96446.00;;;;8266519;28;20656;-64
2023/09/15 14:55:23;;;;;;;2.92;2.72;;;;;27.10;96448.00;;;;8284037;28;20202;-64
2023/09/15 14:59:27;;;;;;;4.82;2.50;;;;;27.20;96447.00;;;;8283595;28;20198;-64
2023/09/15 15:03:31;;;;;;;3.05;2.55;;;;;27.30;96445.00;;;;8281649;28;21018;-64
2023/09/15 15:07:36;;;;;;;2.75;2.55;;;;;27.30;96438.00;;;;8283584;28;20260;-65
2023/09/15 15:11:45;;;;;;;4.22;2.50;;;;;27.20;96435.00;;;;8284224;28;20616;-64
2023/09/15 15:15:48;;;;;;;3.28;2.97;;;;;27.30;96433.00;;;;8279919;28;20860;-64
2023/09/15 15:19:52;;;;;;;5.97;3.03;;;;;27.30;96428.00;;;;8284363;28;20241;-64
2023/09/15 15:23:56;;;;;;;2.85;2.60;;;;;27.20;96431.00;;;;8280094;28;20206;-64
2023/09/15 15:28:05;;;;;;;3.72;2.58;;;;;27.20;96430.00;;;;8274667;28;20710;-62
2023/09/15 15:32:08;;;;;;;5.03;3.25;;;;;27.30;96431.00;;;;8281046;28;20889;-61
2023/09/15 15:36:11;;;;;;;7.45;2.78;;;;;27.20;96430.00;;;;8281246;28;20229;-63
2023/09/15 15:40:15;;;;;;;2.53;2.35;;;;;27.10;96433.00;;;;8281494;28;20245;-63
2023/09/15 15:44:21;;;;;;;4.13;3.00;;;;;26.90;96421.00;;;;8276556;28;20237;-63
2023/09/15 15:48:28;;;;;;;8.38;2.90;;;;;26.70;96421.00;;;;8286131;28;20875;-62
2023/09/15 15:52:32;;;;;;;3.05;2.70;;;;;26.60;96421.00;;;;8280055;28;20904;-62
2023/09/15 15:56:39;;;;;;;3.67;2.70;;;;;26.50;96421.00;;;;8280734;28;20237;-62
2023/09/15 16:00:46;;;;;;;4.10;2.47;;;;;26.60;96428.00;;;;8274868;28;20194;-62
2023/09/15 16:04:51;;;;;;;2.67;2.47;;;;;26.60;96427.00;;;;8280871;28;20629;-63
2023/09/15 16:08:56;;;;;;;2.47;2.28;;;;;26.50;96419.00;;;;8261728;28;20238;-62
2023/09/15 16:13:02;;;;;;;3.78;2.70;;;;;26.50;96425.00;;;;8283388;28;20194;-63
2023/09/15 16:17:10;;;;;;;4.18;2.50;;;;;26.70;96428.00;;;;8283524;28;20198;-62
2023/09/15 16:21:14;;;;;;;3.03;2.78;;;;;26.60;96424.00;;;;8281520;28;20203;-62
2023/09/15 16:25:20;;;;;;;3.60;2.70;;;;;26.30;96425.00;;;;8281925;28;20202;-62
2023/09/15 16:29:26;;;;;;;2.35;2.20;;;;;25.80;96421.00;;;;8283815;28;20948;-62
2023/09/15 16:33:30;;;;;;;2.65;2.47;;;;;25.40;96416.00;;;;8282561;28;20210;-62
2023/09/15 16:37:38;;;;;;;3.92;2.50;;;;;24.90;96416.00;;;;8281448;28;20234;-62
2023/09/15 16:41:41;;;;;;;2.83;2.63;;;;;24.50;96408.00;;;;8279609;28;20289;-62
2023/09/15 16:45:49;;;;;;;2.70;2.50;;;;;24.20;96409.00;;;;8281998;28;20213;-62
2023/09/15 16:49:55;;;;;;;3.60;2.50;;;;;23.90;96400.00;;;;8283163;28;20280;-62
2023/09/15 16:53:58;;;;;;;16.50;2.92;;;;;23.70;96413.00;;;;8282004;28;20225;-62
2023/09/15 16:58:02;;;;;;;2.50;2.25;;;;;23.50;96405.00;;;;8283505;28;20789;-62
2023/09/15 17:02:05;;;;;;;4.78;2.33;;;;;23.20;96407.00;;;;8281113;28;20357;-63
2023/09/15 17:06:10;;;;;;;2.72;2.53;;;;;23.00;96405.00;;;;8283403;28;20217;-62
2023/09/15 17:10:13;;;;;;;2.78;2.38;;;;;22.80;96405.00;;;;8280697;28;20226;-62
2023/09/15 17:14:19;;;;;;;2.63;2.42;;;;;22.60;96412.00;;;;8280732;28;20216;-62
2023/09/15 17:18:22;;;;;;;4.03;2.42;;;;;22.40;96409.00;;;;8263642;28;20198;-63
2023/09/15 17:22:28;;;;;;;7.53;2.85;;;;;22.30;96411.00;;;;8280700;28;20829;-63
2023/09/15 17:26:42;;;;;;;3.60;2.65;;;;;22.10;96410.00;;;;8276122;28;20840;-63
2023/09/15 17:30:46;;;;;;;2.80;2.53;;;;;21.80;96415.00;;;;8277627;28;20230;-63
2023/09/15 17:34:52;;;;;;;3.08;2.70;;;;;21.60;96415.00;;;;8282304;28;20202;-63
2023/09/15 17:38:57;;;;;;;2.53;2.33;;;;;21.40;96415.00;;;;8282785;28;20222;-64
2023/09/15 17:43:01;;;;;;;3.72;2.83;;;;;21.30;96413.00;;;;8279276;28;20198;-63
2023/09/15 17:47:05;;;;;;;3.05;2.85;;;;;21.00;96426.00;;;;8281889;28;20213;-63
2023/09/15 17:51:09;;;;;;;2.67;2.47;;;;;20.80;96427.00;;;;8280525;28;20338;-64
2023/09/15 17:55:18;;;;;;;5.57;2.85;;;;;20.70;96423.00;;;;8280694;28;20209;-64
2023/09/15 17:59:23;;;;;;;3.78;3.15;;;;;20.60;96432.00;;;;8282414;28;20262;-64
2023/09/15 18:03:30;;;;;;;4.43;2.60;;;;;20.50;96432.00;;;;8284714;28;20233;-65
2023/09/15 18:07:41;;;;;;;3.55;2.60;;;;;20.50;96439.00;;;;8272215;28;20207;-65
2023/09/15 18:11:49;;;;;;;3.97;2.95;;;;;20.40;96437.00;;;;8288540;28;20770;-65
2023/09/15 18:15:52;;;;;;;3.10;2.85;;;;;20.30;96445.00;;;;8286368;28;20214;-65
2023/09/15 18:19:55;;;;;;;3.70;3.13;;;;;20.20;96447.00;;;;8285393;28;20198;-65
2023/09/15 18:24:00;;;;;;;3.13;2.88;;;;;20.10;96450.00;;;;8286909;28;20198;-65
2023/09/15 18:28:08;;;;;;;3.58;3.28;;;;;20.00;96445.00;;;;8285397;28;20682;-65
2023/09/15 18:32:11;;;;;;;3.45;3.15;;;;;19.90;96444.00;;;;8281344;28;20206;-65
2023/09/15 18:36:14;;;;;;;4.68;3.42;;;;;19.90;96444.00;;;;8285631;28;20206;-61
2023/09/15 18:40:18;;;;;;;4.72;3.17;;;;;19.70;96443.00;;;;8282431;28;20202;-65
2023/09/15 18:44:23;;;;;;;3.03;2.83;;;;;19.60;96442.00;;;;8284794;28;20290;-65
2023/09/15 18:48:27;;;;;;;3.08;2.88;;;;;19.50;96430.00;;;;8285312;28;20237;-65
2023/09/15 18:52:33;;;;;;;3.28;2.85;;;;;19.40;96436.00;;;;8284682;28;20285;-65
2023/09/15 18:56:36;;;;;;;2.90;2.67;;;;;19.30;96439.00;;;;8284092;28;20592;-65
2023/09/15 19:00:45;;;;;;;5.03;3.30;;;;;19.20;96438.00;;;;8286076;28;20777;-65
2023/09/15 19:04:52;;;;;;;3.90;3.50;;;;;19.10;96438.00;;;;8284366;28;20249;-65
2023/09/15 19:08:55;;;;;;;4.05;3.40;;;;;19.00;96436.00;;;;8280195;28;20721;-65
2023/09/15 19:13:00;;;;;;;6.30;4.05;;;;;18.90;96429.00;;;;8286494;28;20294;-65
2023/09/15 19:17:08;;;;;;;3.75;3.38;;;;;18.80;96432.00;;;;8282653;28;20275;-62
2023/09/15 19:21:13;;;;;;;4.20;3.53;;;;;18.70;96440.00;;;;8283728;28;20248;-65
2023/09/15 19:25:18;;;;;;;3.42;3.13;;;;;18.70;96441.00;;;;8284476;28;20202;-65
2023/09/15 19:29:23;;;;;;;4.72;3.10;;;;;18.60;96445.00;;;;8283963;28;20238;-65
2023/09/15 19:33:30;;;;;;;5.47;3.80;;;;;18.60;96445.00;;;;8284494;28;20234;-65
2023/09/15 19:37:34;;;;;;;4.00;3.08;;;;;18.50;96444.00;;;;8283946;28;20204;-65
2023/09/15 19:41:37;;;;;;;3.90;3.50;;;;;18.40;96439.00;;;;8284327;28;20289;-65
2023/09/15 19:45:41;;;;;;;5.32;3.53;;;;;18.30;96447.00;;;;8279055;28;20257;-65
2023/09/15 19:49:46;;;;;;;4.65;3.33;;;;;18.20;96439.00;;;;8276993;28;20695;-65
2023/09/15 19:53:49;;;;;;;3.97;3.50;;;;;18.10;96447.00;;;;8283492;28;20202;-64
2023/09/15 19:57:54;;;;;;;4.28;3.58;;;;;18.00;96443.00;;;;8283303;28;20689;-65
2023/09/15 20:02:02;;;;;;;7.28;4.25;;;;;17.80;96451.00;;;;8281246;28;20256;-65
2023/09/15 20:06:09;;;;;;;4.47;4.05;;;;;17.60;96443.00;;;;8280237;28;20536;-65
2023/09/15 20:10:12;;;;;;;6.10;4.00;;;;;17.40;96448.00;;;;8281036;28;20240;-65
2023/09/15 20:14:15;;;;;;;5.13;4.10;;;;;17.20;96444.00;;;;8281488;28;20667;-65
2023/09/15 20:18:19;;;;;;;5.03;3.83;;;;;17.00;96450.00;;;;8281152;28;20210;-64
2023/09/15 20:22:23;;;;;;;4.25;3.95;;;;;16.90;96442.00;;;;8282376;28;20241;-65
2023/09/15 20:26:28;;;;;;;4.93;3.90;;;;;16.70;96442.00;;;;8282634;28;20205;-64